sensor_id;sensor_type;location;lat;lon;timestamp;P1;durP1;ratioP1;P2;durP2;ratioP2
19609;SDS011;9952;47.122;-1.638;2023-02-01T00:01:13;14.60;;;4.70;;
19609;SDS011;9952;47.122;-1.638;2023-02-01T00:05:57;19.43;;;5.17;;
19609;SDS011;9952;47.122;-1.638;2023-02-01T00:10:39;12.27;;;4.90;;
19609;SDS011;9952;47.122;-1.638;2023-02-01T00:15:21;13.73;;;4.10;;
19609;SDS011;9952;47.122;-1.638;2023-02-01T00:20:03;14.33;;;4.47;;
19609;SDS011;9952;47.122;-1.638;2023-02-01T00:24:44;18.23;;;4.40;;
19609;SDS011;9952;47.122;-1.638;2023-02-01T00:29:25;17.07;;;4.57;;
19609;SDS011;9952;47.122;-1.638;2023-02-01T00:34:06;11.13;;;4.60;;
19609;SDS011;9952;47.122;-1.638;2023-02-01T00:38:47;16.90;;;4.93;;
19609;SDS011;9952;47.122;-1.638;2023-02-01T00:43:28;12.60;;;4.20;;
19609;SDS011;9952;47.122;-1.638;2023-02-01T00:48:11;13.83;;;4.27;;
19609;SDS011;9952;47.122;-1.638;2023-02-01T00:52:52;13.20;;;4.33;;
19609;SDS011;9952;47.122;-1.638;2023-02-01T00:57:34;15.50;;;4.97;;
19609;SDS011;9952;47.122;-1.638;2023-02-01T01:02:16;11.23;;;5.47;;
19609;SDS011;9952;47.122;-1.638;2023-02-01T01:06:57;14.90;;;5.67;;
19609;SDS011;9952;47.122;-1.638;2023-02-01T01:11:38;13.40;;;4.73;;
19609;SDS011;9952;47.122;-1.638;2023-02-01T01:16:19;14.90;;;4.77;;
19609;SDS011;9952;47.122;-1.638;2023-02-01T01:21:03;16.43;;;4.37;;
19609;SDS011;9952;47.122;-1.638;2023-02-01T01:25:45;9.83;;;4.70;;
19609;SDS011;9952;47.122;-1.638;2023-02-01T01:30:26;12.20;;;4.73;;
19609;SDS011;9952;47.122;-1.638;2023-02-01T01:35:07;18.07;;;4.33;;
19609;SDS011;9952;47.122;-1.638;2023-02-01T01:39:48;8.17;;;4.03;;
19609;SDS011;9952;47.122;-1.638;2023-02-01T01:49:37;9.77;;;4.00;;
19609;SDS011;9952;47.122;-1.638;2023-02-01T01:54:20;14.87;;;4.07;;
19609;SDS011;9952;47.122;-1.638;2023-02-01T01:59:06;12.03;;;4.30;;
19609;SDS011;9952;47.122;-1.638;2023-02-01T02:03:48;13.63;;;4.37;;
19609;SDS011;9952;47.122;-1.638;2023-02-01T02:08:30;13.47;;;4.70;;
19609;SDS011;9952;47.122;-1.638;2023-02-01T02:13:11;10.17;;;4.30;;
19609;SDS011;9952;47.122;-1.638;2023-02-01T02:22:59;10.03;;;4.33;;
19609;SDS011;9952;47.122;-1.638;2023-02-01T02:27:51;11.57;;;4.00;;
19609;SDS011;9952;47.122;-1.638;2023-02-01T02:53:19;12.73;;;4.33;;
19609;SDS011;9952;47.122;-1.638;2023-02-01T02:58:23;10.23;;;4.23;;
19609;SDS011;9952;47.122;-1.638;2023-02-01T03:03:22;11.13;;;4.10;;
19609;SDS011;9952;47.122;-1.638;2023-02-01T03:08:22;12.43;;;4.40;;
19609;SDS011;9952;47.122;-1.638;2023-02-01T03:18:15;12.90;;;4.73;;
19609;SDS011;9952;47.122;-1.638;2023-02-01T03:23:01;10.17;;;5.03;;
19609;SDS011;9952;47.122;-1.638;2023-02-01T03:32:31;14.33;;;4.47;;
19609;SDS011;9952;47.122;-1.638;2023-02-01T03:37:35;11.93;;;4.30;;
19609;SDS011;9952;47.122;-1.638;2023-02-01T03:42:20;12.57;;;3.93;;
19609;SDS011;9952;47.122;-1.638;2023-02-01T03:47:09;7.87;;;3.73;;
19609;SDS011;9952;47.122;-1.638;2023-02-01T03:52:00;8.03;;;3.67;;
19609;SDS011;9952;47.122;-1.638;2023-02-01T03:56:42;13.27;;;3.80;;
19609;SDS011;9952;47.122;-1.638;2023-02-01T04:01:27;9.80;;;3.90;;
19609;SDS011;9952;47.122;-1.638;2023-02-01T04:06:09;10.77;;;4.47;;
19609;SDS011;9952;47.122;-1.638;2023-02-01T04:10:50;14.50;;;4.73;;
19609;SDS011;9952;47.122;-1.638;2023-02-01T04:15:31;12.90;;;5.27;;
19609;SDS011;9952;47.122;-1.638;2023-02-01T04:20:13;11.67;;;4.93;;
19609;SDS011;9952;47.122;-1.638;2023-02-01T04:24:54;18.27;;;5.73;;
19609;SDS011;9952;47.122;-1.638;2023-02-01T04:29:35;11.90;;;5.00;;
19609;SDS011;9952;47.122;-1.638;2023-02-01T04:34:16;14.67;;;5.30;;
19609;SDS011;9952;47.122;-1.638;2023-02-01T04:38:57;12.30;;;5.10;;
19609;SDS011;9952;47.122;-1.638;2023-02-01T04:43:37;10.87;;;5.80;;
19609;SDS011;9952;47.122;-1.638;2023-02-01T04:48:18;16.97;;;5.87;;
19609;SDS011;9952;47.122;-1.638;2023-02-01T04:53:00;13.80;;;5.87;;
19609;SDS011;9952;47.122;-1.638;2023-02-01T04:57:41;18.67;;;6.17;;
19609;SDS011;9952;47.122;-1.638;2023-02-01T05:02:21;14.40;;;6.53;;
19609;SDS011;9952;47.122;-1.638;2023-02-01T05:07:02;12.50;;;5.80;;
19609;SDS011;9952;47.122;-1.638;2023-02-01T05:11:43;17.53;;;6.67;;
19609;SDS011;9952;47.122;-1.638;2023-02-01T05:16:42;14.97;;;6.57;;
19609;SDS011;9952;47.122;-1.638;2023-02-01T05:21:24;14.87;;;5.93;;
19609;SDS011;9952;47.122;-1.638;2023-02-01T05:26:05;14.20;;;5.80;;
19609;SDS011;9952;47.122;-1.638;2023-02-01T05:30:46;15.63;;;5.50;;
19609;SDS011;9952;47.122;-1.638;2023-02-01T05:35:27;12.57;;;5.03;;
19609;SDS011;9952;47.122;-1.638;2023-02-01T05:40:08;15.20;;;5.90;;
19609;SDS011;9952;47.122;-1.638;2023-02-01T05:44:49;16.10;;;6.07;;
19609;SDS011;9952;47.122;-1.638;2023-02-01T05:49:30;22.53;;;9.43;;
19609;SDS011;9952;47.122;-1.638;2023-02-01T05:54:10;22.53;;;9.53;;
19609;SDS011;9952;47.122;-1.638;2023-02-01T05:58:51;18.63;;;7.17;;
19609;SDS011;9952;47.122;-1.638;2023-02-01T06:03:32;13.43;;;5.87;;
19609;SDS011;9952;47.122;-1.638;2023-02-01T06:08:13;17.47;;;6.93;;
19609;SDS011;9952;47.122;-1.638;2023-02-01T06:12:54;14.40;;;5.20;;
19609;SDS011;9952;47.122;-1.638;2023-02-01T06:17:35;14.83;;;5.30;;
19609;SDS011;9952;47.122;-1.638;2023-02-01T06:22:16;12.90;;;5.50;;
19609;SDS011;9952;47.122;-1.638;2023-02-01T06:26:57;11.33;;;5.33;;
19609;SDS011;9952;47.122;-1.638;2023-02-01T06:31:37;21.13;;;5.10;;
19609;SDS011;9952;47.122;-1.638;2023-02-01T06:36:18;15.97;;;5.00;;
19609;SDS011;9952;47.122;-1.638;2023-02-01T06:41:01;12.97;;;4.60;;
19609;SDS011;9952;47.122;-1.638;2023-02-01T06:45:43;17.17;;;5.13;;
19609;SDS011;9952;47.122;-1.638;2023-02-01T06:50:24;14.43;;;5.07;;
19609;SDS011;9952;47.122;-1.638;2023-02-01T06:55:04;21.07;;;5.60;;
19609;SDS011;9952;47.122;-1.638;2023-02-01T06:59:46;17.50;;;6.07;;
19609;SDS011;9952;47.122;-1.638;2023-02-01T07:04:26;17.80;;;5.00;;
19609;SDS011;9952;47.122;-1.638;2023-02-01T07:09:07;17.53;;;5.60;;
19609;SDS011;9952;47.122;-1.638;2023-02-01T07:13:49;12.20;;;4.27;;
19609;SDS011;9952;47.122;-1.638;2023-02-01T07:18:30;20.77;;;4.73;;
19609;SDS011;9952;47.122;-1.638;2023-02-01T07:23:12;19.90;;;6.53;;
19609;SDS011;9952;47.122;-1.638;2023-02-01T07:27:53;21.53;;;8.90;;
19609;SDS011;9952;47.122;-1.638;2023-02-01T07:32:34;18.00;;;4.70;;
19609;SDS011;9952;47.122;-1.638;2023-02-01T07:37:17;20.43;;;5.00;;
19609;SDS011;9952;47.122;-1.638;2023-02-01T07:41:58;17.73;;;6.63;;
19609;SDS011;9952;47.122;-1.638;2023-02-01T07:46:39;23.43;;;6.17;;
19609;SDS011;9952;47.122;-1.638;2023-02-01T07:51:20;20.60;;;6.43;;
19609;SDS011;9952;47.122;-1.638;2023-02-01T07:56:01;19.23;;;7.23;;
19609;SDS011;9952;47.122;-1.638;2023-02-01T08:00:42;27.00;;;8.23;;
19609;SDS011;9952;47.122;-1.638;2023-02-01T08:05:42;25.60;;;7.87;;
19609;SDS011;9952;47.122;-1.638;2023-02-01T08:10:22;34.53;;;12.13;;
19609;SDS011;9952;47.122;-1.638;2023-02-01T08:15:03;21.07;;;5.03;;
19609;SDS011;9952;47.122;-1.638;2023-02-01T08:19:45;13.60;;;3.43;;
19609;SDS011;9952;47.122;-1.638;2023-02-01T08:24:25;24.40;;;4.03;;
19609;SDS011;9952;47.122;-1.638;2023-02-01T08:29:07;15.60;;;3.40;;
19609;SDS011;9952;47.122;-1.638;2023-02-01T08:33:50;21.87;;;5.27;;
19609;SDS011;9952;47.122;-1.638;2023-02-01T08:38:34;17.43;;;5.27;;
19609;SDS011;9952;47.122;-1.638;2023-02-01T08:43:16;10.63;;;2.67;;
19609;SDS011;9952;47.122;-1.638;2023-02-01T08:47:59;17.60;;;3.53;;
19609;SDS011;9952;47.122;-1.638;2023-02-01T08:52:40;14.83;;;3.53;;
19609;SDS011;9952;47.122;-1.638;2023-02-01T08:57:21;17.57;;;3.57;;
19609;SDS011;9952;47.122;-1.638;2023-02-01T09:02:02;35.50;;;14.87;;
19609;SDS011;9952;47.122;-1.638;2023-02-01T09:06:42;15.27;;;5.00;;
19609;SDS011;9952;47.122;-1.638;2023-02-01T09:11:23;18.00;;;4.10;;
19609;SDS011;9952;47.122;-1.638;2023-02-01T09:16:05;27.13;;;8.87;;
19609;SDS011;9952;47.122;-1.638;2023-02-01T09:20:46;60.13;;;24.50;;
19609;SDS011;9952;47.122;-1.638;2023-02-01T09:25:27;78.03;;;26.17;;
19609;SDS011;9952;47.122;-1.638;2023-02-01T09:30:08;49.97;;;20.27;;
19609;SDS011;9952;47.122;-1.638;2023-02-01T09:34:50;86.77;;;36.60;;
19609;SDS011;9952;47.122;-1.638;2023-02-01T09:39:32;200.30;;;92.87;;
19609;SDS011;9952;47.122;-1.638;2023-02-01T09:44:34;201.83;;;89.57;;
19609;SDS011;9952;47.122;-1.638;2023-02-01T09:49:30;265.60;;;113.20;;
19609;SDS011;9952;47.122;-1.638;2023-02-01T10:04:17;86.93;;;34.77;;
19609;SDS011;9952;47.122;-1.638;2023-02-01T10:09:20;30.57;;;9.03;;
19609;SDS011;9952;47.122;-1.638;2023-02-01T10:14:28;54.60;;;21.30;;
19609;SDS011;9952;47.122;-1.638;2023-02-01T10:19:31;95.00;;;40.60;;
19609;SDS011;9952;47.122;-1.638;2023-02-01T10:29:27;68.30;;;27.23;;
19609;SDS011;9952;47.122;-1.638;2023-02-01T10:34:25;26.30;;;6.47;;
19609;SDS011;9952;47.122;-1.638;2023-02-01T10:39:09;53.33;;;23.13;;
19609;SDS011;9952;47.122;-1.638;2023-02-01T10:43:53;38.23;;;18.07;;
19609;SDS011;9952;47.122;-1.638;2023-02-01T10:48:37;17.00;;;4.10;;
19609;SDS011;9952;47.122;-1.638;2023-02-01T11:03:00;21.60;;;3.27;;
19609;SDS011;9952;47.122;-1.638;2023-02-01T11:07:59;12.33;;;2.90;;
19609;SDS011;9952;47.122;-1.638;2023-02-01T11:12:40;18.30;;;2.70;;
19609;SDS011;9952;47.122;-1.638;2023-02-01T11:17:24;22.90;;;4.50;;
19609;SDS011;9952;47.122;-1.638;2023-02-01T11:22:14;19.97;;;3.30;;
19609;SDS011;9952;47.122;-1.638;2023-02-01T11:26:55;22.13;;;3.23;;
19609;SDS011;9952;47.122;-1.638;2023-02-01T11:31:37;23.10;;;3.60;;
19609;SDS011;9952;47.122;-1.638;2023-02-01T11:36:26;17.77;;;3.53;;
19609;SDS011;9952;47.122;-1.638;2023-02-01T11:41:26;15.67;;;2.87;;
19609;SDS011;9952;47.122;-1.638;2023-02-01T11:46:08;15.63;;;2.70;;
19609;SDS011;9952;47.122;-1.638;2023-02-01T11:51:19;16.73;;;3.00;;
19609;SDS011;9952;47.122;-1.638;2023-02-01T12:01:19;20.83;;;2.60;;
19609;SDS011;9952;47.122;-1.638;2023-02-01T12:06:34;19.67;;;3.43;;
19609;SDS011;9952;47.122;-1.638;2023-02-01T12:11:33;19.07;;;2.83;;
19609;SDS011;9952;47.122;-1.638;2023-02-01T12:16:32;14.97;;;2.77;;
19609;SDS011;9952;47.122;-1.638;2023-02-01T12:21:23;16.37;;;2.97;;
19609;SDS011;9952;47.122;-1.638;2023-02-01T12:46:21;30.27;;;7.50;;
19609;SDS011;9952;47.122;-1.638;2023-02-01T12:51:04;19.13;;;3.40;;
19609;SDS011;9952;47.122;-1.638;2023-02-01T12:56:08;15.97;;;2.93;;
19609;SDS011;9952;47.122;-1.638;2023-02-01T13:01:02;17.33;;;4.10;;
19609;SDS011;9952;47.122;-1.638;2023-02-01T13:05:51;13.03;;;3.90;;
19609;SDS011;9952;47.122;-1.638;2023-02-01T13:21:06;18.73;;;4.23;;
19609;SDS011;9952;47.122;-1.638;2023-02-01T13:26:04;17.77;;;3.40;;
19609;SDS011;9952;47.122;-1.638;2023-02-01T13:30:54;17.77;;;4.53;;
19609;SDS011;9952;47.122;-1.638;2023-02-01T13:40:51;26.03;;;3.60;;
19609;SDS011;9952;47.122;-1.638;2023-02-01T13:45:52;20.03;;;2.90;;
19609;SDS011;9952;47.122;-1.638;2023-02-01T13:50:36;15.27;;;2.73;;
19609;SDS011;9952;47.122;-1.638;2023-02-01T14:15:35;19.30;;;4.30;;
19609;SDS011;9952;47.122;-1.638;2023-02-01T14:25:32;15.10;;;2.97;;
19609;SDS011;9952;47.122;-1.638;2023-02-01T14:35:30;15.00;;;2.30;;
19609;SDS011;9952;47.122;-1.638;2023-02-01T14:54:53;13.07;;;2.67;;
19609;SDS011;9952;47.122;-1.638;2023-02-01T14:59:36;13.93;;;2.50;;
19609;SDS011;9952;47.122;-1.638;2023-02-01T15:04:18;14.07;;;2.60;;
19609;SDS011;9952;47.122;-1.638;2023-02-01T15:09:47;17.30;;;3.10;;
19609;SDS011;9952;47.122;-1.638;2023-02-01T15:14:13;15.53;;;2.57;;
19609;SDS011;9952;47.122;-1.638;2023-02-01T15:19:07;17.30;;;2.70;;
19609;SDS011;9952;47.122;-1.638;2023-02-01T15:23:49;139.07;;;59.73;;
19609;SDS011;9952;47.122;-1.638;2023-02-01T15:28:31;21.43;;;6.60;;
19609;SDS011;9952;47.122;-1.638;2023-02-01T15:33:16;14.47;;;3.37;;
19609;SDS011;9952;47.122;-1.638;2023-02-01T15:42:59;17.87;;;3.20;;
19609;SDS011;9952;47.122;-1.638;2023-02-01T15:47:40;13.00;;;3.30;;
19609;SDS011;9952;47.122;-1.638;2023-02-01T15:52:36;19.23;;;3.77;;
19609;SDS011;9952;47.122;-1.638;2023-02-01T15:57:36;12.83;;;2.83;;
19609;SDS011;9952;47.122;-1.638;2023-02-01T16:02:55;19.73;;;3.10;;
19609;SDS011;9952;47.122;-1.638;2023-02-01T16:07:34;23.10;;;4.63;;
19609;SDS011;9952;47.122;-1.638;2023-02-01T16:12:31;18.23;;;3.83;;
19609;SDS011;9952;47.122;-1.638;2023-02-01T16:17:18;19.93;;;7.70;;
19609;SDS011;9952;47.122;-1.638;2023-02-01T16:21:59;22.73;;;3.23;;
19609;SDS011;9952;47.122;-1.638;2023-02-01T16:26:40;17.17;;;3.43;;
19609;SDS011;9952;47.122;-1.638;2023-02-01T16:31:21;20.65;;;5.65;;
19609;SDS011;9952;47.122;-1.638;2023-02-01T16:36:08;14.93;;;3.53;;
19609;SDS011;9952;47.122;-1.638;2023-02-01T16:40:49;16.13;;;3.97;;
19609;SDS011;9952;47.122;-1.638;2023-02-01T16:45:30;14.37;;;3.80;;
19609;SDS011;9952;47.122;-1.638;2023-02-01T16:50:18;15.63;;;2.60;;
19609;SDS011;9952;47.122;-1.638;2023-02-01T16:55:04;18.07;;;4.10;;
19609;SDS011;9952;47.122;-1.638;2023-02-01T16:59:52;65.40;;;22.03;;
19609;SDS011;9952;47.122;-1.638;2023-02-01T17:04:32;22.23;;;7.27;;
19609;SDS011;9952;47.122;-1.638;2023-02-01T17:09:15;13.83;;;3.97;;
19609;SDS011;9952;47.122;-1.638;2023-02-01T17:13:57;20.60;;;6.07;;
19609;SDS011;9952;47.122;-1.638;2023-02-01T17:19:05;14.27;;;3.63;;
19609;SDS011;9952;47.122;-1.638;2023-02-01T17:23:50;16.07;;;3.10;;
19609;SDS011;9952;47.122;-1.638;2023-02-01T17:28:32;17.67;;;3.77;;
19609;SDS011;9952;47.122;-1.638;2023-02-01T17:33:18;19.23;;;4.43;;
19609;SDS011;9952;47.122;-1.638;2023-02-01T17:38:03;29.17;;;12.40;;
19609;SDS011;9952;47.122;-1.638;2023-02-01T17:42:45;41.93;;;14.77;;
19609;SDS011;9952;47.122;-1.638;2023-02-01T17:47:26;38.17;;;10.63;;
19609;SDS011;9952;47.122;-1.638;2023-02-01T17:52:08;30.27;;;10.97;;
19609;SDS011;9952;47.122;-1.638;2023-02-01T17:56:56;30.87;;;9.83;;
19609;SDS011;9952;47.122;-1.638;2023-02-01T18:01:39;18.90;;;5.93;;
19609;SDS011;9952;47.122;-1.638;2023-02-01T18:06:21;9.13;;;3.30;;
19609;SDS011;9952;47.122;-1.638;2023-02-01T18:11:08;15.67;;;3.50;;
19609;SDS011;9952;47.122;-1.638;2023-02-01T18:15:54;27.90;;;7.47;;
19609;SDS011;9952;47.122;-1.638;2023-02-01T18:20:35;23.03;;;6.57;;
19609;SDS011;9952;47.122;-1.638;2023-02-01T18:25:22;24.60;;;5.27;;
19609;SDS011;9952;47.122;-1.638;2023-02-01T18:30:05;19.93;;;3.80;;
19609;SDS011;9952;47.122;-1.638;2023-02-01T18:34:46;26.50;;;6.53;;
19609;SDS011;9952;47.122;-1.638;2023-02-01T18:39:27;18.50;;;5.53;;
19609;SDS011;9952;47.122;-1.638;2023-02-01T18:44:14;16.30;;;4.30;;
19609;SDS011;9952;47.122;-1.638;2023-02-01T18:48:56;18.70;;;4.53;;
19609;SDS011;9952;47.122;-1.638;2023-02-01T18:53:37;18.67;;;4.30;;
19609;SDS011;9952;47.122;-1.638;2023-02-01T18:58:18;22.47;;;5.90;;
19609;SDS011;9952;47.122;-1.638;2023-02-01T19:02:59;21.53;;;5.20;;
19609;SDS011;9952;47.122;-1.638;2023-02-01T19:07:40;20.07;;;5.97;;
19609;SDS011;9952;47.122;-1.638;2023-02-01T19:12:22;20.67;;;5.67;;
19609;SDS011;9952;47.122;-1.638;2023-02-01T19:17:02;13.97;;;3.77;;
19609;SDS011;9952;47.122;-1.638;2023-02-01T19:21:43;22.23;;;5.07;;
19609;SDS011;9952;47.122;-1.638;2023-02-01T19:26:26;24.80;;;7.53;;
19609;SDS011;9952;47.122;-1.638;2023-02-01T19:31:07;15.90;;;5.17;;
19609;SDS011;9952;47.122;-1.638;2023-02-01T19:35:48;19.43;;;5.40;;
19609;SDS011;9952;47.122;-1.638;2023-02-01T19:40:29;16.67;;;4.90;;
19609;SDS011;9952;47.122;-1.638;2023-02-01T19:45:10;20.37;;;4.77;;
19609;SDS011;9952;47.122;-1.638;2023-02-01T19:49:51;18.97;;;5.70;;
19609;SDS011;9952;47.122;-1.638;2023-02-01T19:54:32;22.07;;;7.07;;
19609;SDS011;9952;47.122;-1.638;2023-02-01T19:59:13;22.33;;;5.77;;
19609;SDS011;9952;47.122;-1.638;2023-02-01T20:03:55;28.13;;;10.43;;
19609;SDS011;9952;47.122;-1.638;2023-02-01T20:08:41;27.17;;;8.80;;
19609;SDS011;9952;47.122;-1.638;2023-02-01T20:13:22;20.73;;;5.87;;
19609;SDS011;9952;47.122;-1.638;2023-02-01T20:18:03;20.00;;;5.70;;
19609;SDS011;9952;47.122;-1.638;2023-02-01T20:22:44;25.33;;;7.60;;
19609;SDS011;9952;47.122;-1.638;2023-02-01T20:27:25;19.27;;;8.27;;
19609;SDS011;9952;47.122;-1.638;2023-02-01T20:32:06;15.33;;;8.37;;
19609;SDS011;9952;47.122;-1.638;2023-02-01T20:36:47;23.30;;;10.00;;
19609;SDS011;9952;47.122;-1.638;2023-02-01T20:41:28;27.70;;;12.27;;
19609;SDS011;9952;47.122;-1.638;2023-02-01T20:46:09;23.30;;;8.33;;
19609;SDS011;9952;47.122;-1.638;2023-02-01T20:50:53;27.27;;;9.50;;
19609;SDS011;9952;47.122;-1.638;2023-02-01T20:55:34;37.80;;;17.97;;
19609;SDS011;9952;47.122;-1.638;2023-02-01T21:00:15;40.17;;;15.37;;
19609;SDS011;9952;47.122;-1.638;2023-02-01T21:04:57;33.27;;;14.60;;
19609;SDS011;9952;47.122;-1.638;2023-02-01T21:09:38;22.43;;;9.07;;
19609;SDS011;9952;47.122;-1.638;2023-02-01T21:14:20;21.13;;;5.37;;
19609;SDS011;9952;47.122;-1.638;2023-02-01T21:19:01;18.47;;;4.93;;
19609;SDS011;9952;47.122;-1.638;2023-02-01T21:23:42;12.23;;;4.17;;
19609;SDS011;9952;47.122;-1.638;2023-02-01T21:28:26;20.00;;;4.07;;
19609;SDS011;9952;47.122;-1.638;2023-02-01T21:33:07;17.03;;;4.53;;
19609;SDS011;9952;47.122;-1.638;2023-02-01T21:37:49;27.70;;;6.90;;
19609;SDS011;9952;47.122;-1.638;2023-02-01T21:42:30;41.17;;;15.20;;
19609;SDS011;9952;47.122;-1.638;2023-02-01T21:47:10;22.73;;;8.67;;
19609;SDS011;9952;47.122;-1.638;2023-02-01T21:51:52;26.30;;;8.50;;
19609;SDS011;9952;47.122;-1.638;2023-02-01T21:56:32;21.73;;;7.10;;
19609;SDS011;9952;47.122;-1.638;2023-02-01T22:01:14;18.67;;;7.00;;
19609;SDS011;9952;47.122;-1.638;2023-02-01T22:05:54;29.20;;;9.07;;
19609;SDS011;9952;47.122;-1.638;2023-02-01T22:10:35;25.77;;;8.73;;
19609;SDS011;9952;47.122;-1.638;2023-02-01T22:15:18;29.07;;;12.20;;
19609;SDS011;9952;47.122;-1.638;2023-02-01T22:19:58;34.70;;;14.60;;
19609;SDS011;9952;47.122;-1.638;2023-02-01T22:24:39;37.70;;;13.73;;
19609;SDS011;9952;47.122;-1.638;2023-02-01T22:29:20;35.00;;;13.07;;
19609;SDS011;9952;47.122;-1.638;2023-02-01T22:34:02;38.83;;;14.63;;
19609;SDS011;9952;47.122;-1.638;2023-02-01T22:38:43;44.53;;;15.03;;
19609;SDS011;9952;47.122;-1.638;2023-02-01T22:43:26;49.13;;;19.77;;
19609;SDS011;9952;47.122;-1.638;2023-02-01T22:48:07;48.77;;;16.33;;
19609;SDS011;9952;47.122;-1.638;2023-02-01T22:52:47;42.97;;;15.33;;
19609;SDS011;9952;47.122;-1.638;2023-02-01T22:57:28;62.90;;;19.73;;
19609;SDS011;9952;47.122;-1.638;2023-02-01T23:02:10;39.60;;;16.03;;
19609;SDS011;9952;47.122;-1.638;2023-02-01T23:06:52;43.20;;;11.87;;
19609;SDS011;9952;47.122;-1.638;2023-02-01T23:11:33;36.43;;;12.00;;
19609;SDS011;9952;47.122;-1.638;2023-02-01T23:16:13;31.90;;;12.53;;
19609;SDS011;9952;47.122;-1.638;2023-02-01T23:20:54;26.17;;;11.73;;
19609;SDS011;9952;47.122;-1.638;2023-02-01T23:25:35;25.83;;;9.00;;
19609;SDS011;9952;47.122;-1.638;2023-02-01T23:30:16;22.67;;;8.40;;
19609;SDS011;9952;47.122;-1.638;2023-02-01T23:34:57;26.07;;;8.10;;
19609;SDS011;9952;47.122;-1.638;2023-02-01T23:39:38;23.73;;;7.20;;
19609;SDS011;9952;47.122;-1.638;2023-02-01T23:44:19;23.83;;;8.47;;
19609;SDS011;9952;47.122;-1.638;2023-02-01T23:49:00;22.23;;;6.83;;
19609;SDS011;9952;47.122;-1.638;2023-02-01T23:53:41;26.67;;;8.23;;
19609;SDS011;9952;47.122;-1.638;2023-02-01T23:58:23;29.47;;;9.60;;
